N5535W KADS-KBDU
Flight info
| Callsign | N5535W |
|---|---|
| Flight time | N/A |
| Altitude | 20000 |
| Route | DCT |
| Aircraft | B36T/L-BDFGLORY/S |
Departure
| Time | N/A |
|---|---|
| Airport | Addison Airport (KADS) |
Arrival
| Time | 2026-04-26 05:00 |
|---|---|
| Airport | Boulder Municipal Airport (KBDU) |
| Time | Latitude | Longitude | Altitude | Speed | Heading |
|---|---|---|---|---|---|
| 2026-04-26 03:29 | 36.38591 | -100.66206 | 19849 ft | 209 kts | 311° |
| 2026-04-26 03:29 | 36.39650 | -100.67436 | 19849 ft | 209 kts | 311° |
| 2026-04-26 03:29 | 36.40710 | -100.68667 | 19849 ft | 209 kts | 311° |
| 2026-04-26 03:30 | 36.41768 | -100.69898 | 19846 ft | 209 kts | 311° |
| 2026-04-26 03:30 | 36.42827 | -100.71129 | 19846 ft | 209 kts | 311° |
| 2026-04-26 03:30 | 36.43887 | -100.72361 | 19846 ft | 209 kts | 311° |
| 2026-04-26 03:30 | 36.44945 | -100.73594 | 19846 ft | 209 kts | 311° |
| 2026-04-26 03:31 | 36.46003 | -100.74826 | 19848 ft | 209 kts | 311° |
| 2026-04-26 03:31 | 36.47062 | -100.76059 | 19848 ft | 209 kts | 311° |
| 2026-04-26 03:31 | 36.48105 | -100.77274 | 19848 ft | 208 kts | 311° |
| 2026-04-26 03:31 | 36.49163 | -100.78507 | 19848 ft | 208 kts | 311° |
| 2026-04-26 03:32 | 36.50220 | -100.79739 | 19861 ft | 208 kts | 311° |
| 2026-04-26 03:32 | 36.51281 | -100.80978 | 19842 ft | 209 kts | 311° |
| 2026-04-26 03:32 | 36.52343 | -100.82217 | 19838 ft | 209 kts | 311° |
| 2026-04-26 03:32 | 36.53404 | -100.83456 | 19835 ft | 209 kts | 311° |
| 2026-04-26 03:33 | 36.54467 | -100.84696 | 19832 ft | 210 kts | 311° |
| 2026-04-26 03:33 | 36.55529 | -100.85938 | 19830 ft | 210 kts | 311° |
| 2026-04-26 03:33 | 36.56592 | -100.87180 | 19779 ft | 210 kts | 311° |
| 2026-04-26 03:33 | 36.57640 | -100.88405 | 19780 ft | 210 kts | 311° |
| 2026-04-26 03:34 | 36.58702 | -100.89648 | 19783 ft | 210 kts | 311° |
| 2026-04-26 03:34 | 36.59765 | -100.90892 | 19782 ft | 210 kts | 311° |
| 2026-04-26 03:34 | 36.60829 | -100.92138 | 19783 ft | 210 kts | 311° |
| 2026-04-26 03:34 | 36.61892 | -100.93382 | 19783 ft | 210 kts | 311° |
| 2026-04-26 03:35 | 36.62956 | -100.94629 | 19780 ft | 210 kts | 311° |
| 2026-04-26 03:35 | 36.64019 | -100.95876 | 19787 ft | 210 kts | 311° |
| 2026-04-26 03:35 | 36.65082 | -100.97121 | 19787 ft | 210 kts | 311° |
| 2026-04-26 03:35 | 36.66143 | -100.98366 | 19788 ft | 210 kts | 311° |
| 2026-04-26 03:36 | 36.67191 | -100.99596 | 19788 ft | 210 kts | 311° |
| 2026-04-26 03:36 | 36.68254 | -101.00843 | 19788 ft | 210 kts | 311° |
| 2026-04-26 03:36 | 36.69315 | -101.02090 | 19782 ft | 210 kts | 311° |
| 2026-04-26 03:36 | 36.70377 | -101.03338 | 19785 ft | 210 kts | 311° |
| 2026-04-26 03:37 | 36.71439 | -101.04586 | 19788 ft | 210 kts | 311° |
| 2026-04-26 03:37 | 36.72500 | -101.05834 | 19795 ft | 210 kts | 311° |
| 2026-04-26 03:37 | 36.73562 | -101.07083 | 19798 ft | 210 kts | 311° |
| 2026-04-26 03:37 | 36.74623 | -101.08332 | 19802 ft | 210 kts | 311° |
| 2026-04-26 03:38 | 36.75670 | -101.09563 | 19805 ft | 210 kts | 311° |
| 2026-04-26 03:38 | 36.76729 | -101.10812 | 19807 ft | 210 kts | 311° |
| 2026-04-26 03:38 | 36.77789 | -101.12061 | 19809 ft | 209 kts | 311° |
| 2026-04-26 03:38 | 36.78847 | -101.13307 | 19811 ft | 210 kts | 311° |
| 2026-04-26 03:39 | 36.79907 | -101.14557 | 19811 ft | 210 kts | 311° |
| 2026-04-26 03:39 | 36.80967 | -101.15807 | 19816 ft | 210 kts | 311° |
| 2026-04-26 03:39 | 36.82026 | -101.17057 | 19818 ft | 210 kts | 311° |
| 2026-04-26 03:39 | 36.83084 | -101.18306 | 19818 ft | 209 kts | 310° |
| 2026-04-26 03:40 | 36.84144 | -101.19557 | 19819 ft | 209 kts | 311° |
| 2026-04-26 03:40 | 36.85187 | -101.20791 | 19820 ft | 210 kts | 310° |
| 2026-04-26 03:40 | 36.86246 | -101.22042 | 19820 ft | 210 kts | 310° |
| 2026-04-26 03:40 | 36.87306 | -101.23296 | 19819 ft | 210 kts | 311° |
| 2026-04-26 03:41 | 36.88366 | -101.24549 | 19819 ft | 210 kts | 311° |
| 2026-04-26 03:41 | 36.89426 | -101.25804 | 19830 ft | 210 kts | 311° |
| 2026-04-26 03:41 | 36.90486 | -101.27059 | 19835 ft | 210 kts | 310° |
| 2026-04-26 03:41 | 36.91547 | -101.28315 | 19840 ft | 210 kts | 310° |
| 2026-04-26 03:42 | 36.92607 | -101.29571 | 19843 ft | 210 kts | 311° |
| 2026-04-26 03:42 | 36.93669 | -101.30830 | 19862 ft | 211 kts | 310° |
| 2026-04-26 03:42 | 36.94718 | -101.32074 | 19851 ft | 210 kts | 310° |
| 2026-04-26 03:42 | 36.95777 | -101.33330 | 19856 ft | 210 kts | 310° |
| 2026-04-26 03:43 | 36.96835 | -101.34585 | 19856 ft | 209 kts | 310° |
| 2026-04-26 03:43 | 36.97890 | -101.35838 | 19865 ft | 209 kts | 310° |
| 2026-04-26 03:43 | 36.98944 | -101.37090 | 19869 ft | 209 kts | 310° |
| 2026-04-26 03:43 | 37.00000 | -101.38345 | 19873 ft | 209 kts | 310° |
| 2026-04-26 03:44 | 37.01055 | -101.39598 | 19878 ft | 209 kts | 310° |
| 2026-04-26 03:44 | 37.02110 | -101.40853 | 19881 ft | 209 kts | 310° |
| 2026-04-26 03:44 | 37.03150 | -101.42091 | 19884 ft | 209 kts | 310° |
| 2026-04-26 03:44 | 37.04205 | -101.43347 | 19886 ft | 209 kts | 310° |
| 2026-04-26 03:45 | 37.05261 | -101.44607 | 19888 ft | 210 kts | 310° |
| 2026-04-26 03:45 | 37.06316 | -101.45861 | 19888 ft | 210 kts | 310° |
| 2026-04-26 03:45 | 37.07371 | -101.47118 | 19889 ft | 209 kts | 310° |
| 2026-04-26 03:45 | 37.08428 | -101.48377 | 19889 ft | 209 kts | 310° |
| 2026-04-26 03:46 | 37.09482 | -101.49634 | 19888 ft | 209 kts | 310° |
| 2026-04-26 03:46 | 37.10537 | -101.50892 | 19895 ft | 209 kts | 310° |
| 2026-04-26 03:46 | 37.11590 | -101.52150 | 19893 ft | 209 kts | 310° |
| 2026-04-26 03:47 | 37.13686 | -101.54651 | 19888 ft | 210 kts | 310° |
| 2026-04-26 03:47 | 37.14740 | -101.55911 | 19885 ft | 210 kts | 310° |
| 2026-04-26 03:47 | 37.15798 | -101.57170 | 19890 ft | 209 kts | 309° |
| 2026-04-26 03:47 | 37.16850 | -101.58432 | 19887 ft | 209 kts | 309° |
| 2026-04-26 03:48 | 37.17900 | -101.59690 | 19883 ft | 209 kts | 309° |
| 2026-04-26 03:48 | 37.18950 | -101.60946 | 19880 ft | 209 kts | 309° |
| 2026-04-26 03:48 | 37.19998 | -101.62202 | 19876 ft | 208 kts | 309° |
| 2026-04-26 03:48 | 37.21047 | -101.63458 | 19872 ft | 208 kts | 309° |
| 2026-04-26 03:49 | 37.22095 | -101.64714 | 19867 ft | 208 kts | 309° |
| 2026-04-26 03:49 | 37.23143 | -101.65971 | 19863 ft | 208 kts | 309° |
| 2026-04-26 03:49 | 37.24178 | -101.67211 | 19861 ft | 208 kts | 309° |
| 2026-04-26 03:49 | 37.25226 | -101.68469 | 19857 ft | 209 kts | 309° |
| 2026-04-26 03:50 | 37.26278 | -101.69732 | 19855 ft | 209 kts | 309° |
| 2026-04-26 03:50 | 37.27329 | -101.70993 | 19849 ft | 209 kts | 309° |
| 2026-04-26 03:50 | 37.28382 | -101.72258 | 19854 ft | 209 kts | 309° |
| 2026-04-26 03:50 | 37.29434 | -101.73522 | 19858 ft | 209 kts | 309° |
| 2026-04-26 03:51 | 37.30486 | -101.74787 | 19861 ft | 209 kts | 309° |
| 2026-04-26 03:51 | 37.31538 | -101.76052 | 19867 ft | 209 kts | 309° |
| 2026-04-26 03:51 | 37.32589 | -101.77317 | 19874 ft | 209 kts | 309° |
| 2026-04-26 03:51 | 37.33628 | -101.78567 | 19878 ft | 209 kts | 309° |
| 2026-04-26 03:52 | 37.34678 | -101.79831 | 19881 ft | 209 kts | 309° |
| 2026-04-26 03:52 | 37.35728 | -101.81096 | 19884 ft | 209 kts | 309° |
| 2026-04-26 03:52 | 37.36780 | -101.82365 | 19880 ft | 210 kts | 308° |
| 2026-04-26 03:52 | 37.37833 | -101.83634 | 19889 ft | 210 kts | 308° |
| 2026-04-26 03:53 | 37.38887 | -101.84904 | 19891 ft | 210 kts | 308° |
| 2026-04-26 03:53 | 37.39937 | -101.86172 | 19893 ft | 210 kts | 308° |
| 2026-04-26 03:53 | 37.40989 | -101.87441 | 19896 ft | 210 kts | 309° |
| 2026-04-26 03:53 | 37.42040 | -101.88711 | 19897 ft | 210 kts | 308° |
| 2026-04-26 03:54 | 37.43092 | -101.89981 | 19899 ft | 210 kts | 308° |
| 2026-04-26 03:54 | 37.44129 | -101.91235 | 19885 ft | 210 kts | 309° |
| 2026-04-26 03:54 | 37.45180 | -101.92506 | 19899 ft | 210 kts | 308° |
| 2026-04-26 03:54 | 37.46232 | -101.93778 | 19898 ft | 210 kts | 308° |
| 2026-04-26 03:55 | 37.47284 | -101.95050 | 19898 ft | 210 kts | 308° |
| 2026-04-26 03:55 | 37.48334 | -101.96323 | 19896 ft | 210 kts | 308° |
| 2026-04-26 03:55 | 37.49386 | -101.97596 | 19897 ft | 209 kts | 308° |
| 2026-04-26 03:55 | 37.50435 | -101.98868 | 19895 ft | 210 kts | 308° |
| 2026-04-26 03:56 | 37.51485 | -102.00140 | 19894 ft | 210 kts | 308° |
| 2026-04-26 03:56 | 37.52536 | -102.01414 | 19891 ft | 210 kts | 308° |
| 2026-04-26 03:56 | 37.53572 | -102.02671 | 19885 ft | 210 kts | 308° |
| 2026-04-26 03:56 | 37.54622 | -102.03945 | 19882 ft | 210 kts | 308° |
| 2026-04-26 03:57 | 37.55673 | -102.05228 | 19885 ft | 211 kts | 309° |
| 2026-04-26 03:57 | 37.56732 | -102.06510 | 19875 ft | 212 kts | 309° |
| 2026-04-26 03:57 | 37.57796 | -102.07801 | 19882 ft | 213 kts | 308° |
| 2026-04-26 03:57 | 37.58861 | -102.09094 | 19879 ft | 213 kts | 308° |
| 2026-04-26 03:58 | 37.59926 | -102.10388 | 19875 ft | 212 kts | 308° |
| 2026-04-26 03:58 | 37.60988 | -102.11681 | 19872 ft | 212 kts | 308° |
| 2026-04-26 03:58 | 37.62037 | -102.12958 | 19868 ft | 213 kts | 308° |
| 2026-04-26 03:58 | 37.63101 | -102.14254 | 19860 ft | 213 kts | 308° |
| 2026-04-26 03:59 | 37.64165 | -102.15550 | 19860 ft | 212 kts | 308° |
| 2026-04-26 03:59 | 37.65227 | -102.16844 | 19857 ft | 212 kts | 308° |
| 2026-04-26 03:59 | 37.65342 | -102.16985 | 19857 ft | 212 kts | 308° |
| 2026-04-26 03:59 | 37.65958 | -102.17742 | 19861 ft | 212 kts | 308° |
| 2026-04-26 04:00 | 37.67015 | -102.19044 | 19860 ft | 213 kts | 308° |
| 2026-04-26 04:00 | 37.68085 | -102.20338 | 19860 ft | 213 kts | 308° |
| 2026-04-26 04:00 | 37.69151 | -102.21631 | 19860 ft | 213 kts | 308° |
| 2026-04-26 04:00 | 37.70214 | -102.22927 | 19861 ft | 213 kts | 308° |
| 2026-04-26 04:01 | 37.71263 | -102.24209 | 19864 ft | 213 kts | 308° |
| 2026-04-26 04:01 | 37.72325 | -102.25508 | 19858 ft | 212 kts | 308° |
| 2026-04-26 04:01 | 37.73387 | -102.26806 | 19863 ft | 213 kts | 308° |
| 2026-04-26 04:01 | 37.74452 | -102.28108 | 19865 ft | 213 kts | 308° |
| 2026-04-26 04:02 | 37.75514 | -102.29408 | 19865 ft | 213 kts | 308° |
| 2026-04-26 04:02 | 37.76578 | -102.30710 | 19861 ft | 213 kts | 308° |
| 2026-04-26 04:02 | 37.77639 | -102.32008 | 19865 ft | 213 kts | 308° |
| 2026-04-26 04:02 | 37.78701 | -102.33310 | 19864 ft | 212 kts | 308° |
| 2026-04-26 04:03 | 37.79762 | -102.34611 | 19861 ft | 212 kts | 308° |
| 2026-04-26 04:03 | 37.80822 | -102.35910 | 19865 ft | 213 kts | 308° |
| 2026-04-26 04:03 | 37.81869 | -102.37196 | 19865 ft | 213 kts | 308° |
| 2026-04-26 04:03 | 37.82932 | -102.38499 | 19868 ft | 213 kts | 308° |
| 2026-04-26 04:04 | 37.83993 | -102.39802 | 19868 ft | 213 kts | 308° |
| 2026-04-26 04:04 | 37.85053 | -102.41107 | 19868 ft | 213 kts | 308° |
| 2026-04-26 04:04 | 37.86115 | -102.42416 | 19868 ft | 214 kts | 309° |
| 2026-04-26 04:04 | 37.87186 | -102.43726 | 19868 ft | 214 kts | 309° |
| 2026-04-26 04:05 | 37.88255 | -102.45039 | 19869 ft | 214 kts | 308° |
| 2026-04-26 04:05 | 37.89325 | -102.46356 | 19869 ft | 215 kts | 308° |
| 2026-04-26 04:05 | 37.90380 | -102.47655 | 19869 ft | 215 kts | 308° |
| 2026-04-26 04:05 | 37.91451 | -102.48974 | 19866 ft | 215 kts | 308° |
| 2026-04-26 04:06 | 37.92521 | -102.50291 | 19869 ft | 215 kts | 308° |
| 2026-04-26 04:06 | 37.93590 | -102.51610 | 19864 ft | 214 kts | 308° |
| 2026-04-26 04:06 | 37.94658 | -102.52926 | 19869 ft | 214 kts | 308° |
| 2026-04-26 04:06 | 37.95729 | -102.54247 | 19866 ft | 215 kts | 308° |
| 2026-04-26 04:07 | 37.96799 | -102.55568 | 19868 ft | 215 kts | 308° |
| 2026-04-26 04:07 | 37.97856 | -102.56872 | 19959 ft | 215 kts | 308° |
| 2026-04-26 04:07 | 37.98928 | -102.58195 | 19959 ft | 215 kts | 308° |
| 2026-04-26 04:07 | 37.99995 | -102.59514 | 19964 ft | 214 kts | 308° |
| 2026-04-26 04:08 | 38.01058 | -102.60829 | 19966 ft | 213 kts | 308° |
| 2026-04-26 04:08 | 38.02120 | -102.62142 | 19966 ft | 213 kts | 308° |
| 2026-04-26 04:08 | 38.03182 | -102.63456 | 19965 ft | 213 kts | 308° |
| 2026-04-26 04:08 | 38.04242 | -102.64768 | 19965 ft | 213 kts | 308° |
| 2026-04-26 04:09 | 38.05302 | -102.66079 | 19967 ft | 213 kts | 308° |
| 2026-04-26 04:09 | 38.06360 | -102.67390 | 19968 ft | 213 kts | 308° |
| 2026-04-26 04:09 | 38.07419 | -102.68704 | 19968 ft | 213 kts | 308° |
| 2026-04-26 04:09 | 38.08466 | -102.70001 | 19967 ft | 213 kts | 308° |
| 2026-04-26 04:10 | 38.09523 | -102.71312 | 19967 ft | 213 kts | 308° |
| 2026-04-26 04:10 | 38.10584 | -102.72628 | 19967 ft | 213 kts | 308° |
| 2026-04-26 04:10 | 38.11644 | -102.73945 | 19966 ft | 213 kts | 308° |
| 2026-04-26 04:10 | 38.12704 | -102.75261 | 19967 ft | 213 kts | 308° |
| 2026-04-26 04:11 | 38.13762 | -102.76576 | 19967 ft | 213 kts | 308° |
| 2026-04-26 04:11 | 38.14819 | -102.77895 | 19964 ft | 213 kts | 308° |
| 2026-04-26 04:11 | 38.15878 | -102.79210 | 19960 ft | 213 kts | 309° |
| 2026-04-26 04:11 | 38.16941 | -102.80530 | 19954 ft | 214 kts | 308° |
| 2026-04-26 04:12 | 38.17990 | -102.81834 | 19950 ft | 214 kts | 309° |
| 2026-04-26 04:12 | 38.19052 | -102.83158 | 19944 ft | 215 kts | 308° |
| 2026-04-26 04:12 | 38.20117 | -102.84486 | 19938 ft | 215 kts | 308° |
| 2026-04-26 04:12 | 38.21187 | -102.85817 | 19933 ft | 215 kts | 308° |
| 2026-04-26 04:13 | 38.22254 | -102.87147 | 19928 ft | 215 kts | 308° |
| 2026-04-26 04:13 | 38.23322 | -102.88479 | 19927 ft | 215 kts | 308° |
| 2026-04-26 04:13 | 38.24391 | -102.89813 | 19923 ft | 215 kts | 308° |
| 2026-04-26 04:13 | 38.25458 | -102.91146 | 19918 ft | 215 kts | 308° |
| 2026-04-26 04:14 | 38.26512 | -102.92461 | 19912 ft | 215 kts | 308° |
| 2026-04-26 04:14 | 38.27578 | -102.93794 | 19907 ft | 215 kts | 308° |
| 2026-04-26 04:14 | 38.28644 | -102.95126 | 19902 ft | 215 kts | 308° |
| 2026-04-26 04:14 | 38.29710 | -102.96459 | 19898 ft | 215 kts | 308° |
| 2026-04-26 04:15 | 38.30777 | -102.97794 | 19902 ft | 215 kts | 308° |
| 2026-04-26 04:15 | 38.31842 | -102.99128 | 19897 ft | 215 kts | 308° |
| 2026-04-26 04:15 | 38.32908 | -103.00462 | 19893 ft | 215 kts | 308° |
| 2026-04-26 04:15 | 38.33975 | -103.01798 | 19893 ft | 215 kts | 308° |
| 2026-04-26 04:16 | 38.35040 | -103.03133 | 19889 ft | 215 kts | 308° |
| 2026-04-26 04:16 | 38.36091 | -103.04450 | 19889 ft | 215 kts | 308° |
| 2026-04-26 04:16 | 38.37154 | -103.05785 | 19889 ft | 215 kts | 308° |
| 2026-04-26 04:16 | 38.38220 | -103.07123 | 19889 ft | 215 kts | 308° |
| 2026-04-26 04:17 | 38.39285 | -103.08459 | 19899 ft | 216 kts | 307° |
| 2026-04-26 04:17 | 38.40353 | -103.09801 | 19899 ft | 215 kts | 307° |
| 2026-04-26 04:17 | 38.41419 | -103.11140 | 19899 ft | 215 kts | 307° |
| 2026-04-26 04:17 | 38.42484 | -103.12478 | 19899 ft | 215 kts | 307° |
| 2026-04-26 04:18 | 38.43548 | -103.13820 | 19899 ft | 215 kts | 307° |
| 2026-04-26 04:18 | 38.44614 | -103.15163 | 19898 ft | 215 kts | 308° |
| 2026-04-26 04:18 | 38.45668 | -103.16485 | 19898 ft | 215 kts | 308° |
| 2026-04-26 04:18 | 38.46734 | -103.17826 | 19898 ft | 215 kts | 308° |
| 2026-04-26 04:19 | 38.47800 | -103.19170 | 19904 ft | 215 kts | 308° |
| 2026-04-26 04:19 | 38.48864 | -103.20512 | 19907 ft | 215 kts | 308° |
| 2026-04-26 04:19 | 38.49928 | -103.21853 | 19908 ft | 215 kts | 308° |
| 2026-04-26 04:19 | 38.50993 | -103.23196 | 19908 ft | 215 kts | 308° |
| 2026-04-26 04:20 | 38.52059 | -103.24541 | 19909 ft | 215 kts | 308° |
| 2026-04-26 04:20 | 38.53124 | -103.25887 | 19909 ft | 215 kts | 308° |
| 2026-04-26 04:20 | 38.54190 | -103.27233 | 19909 ft | 215 kts | 308° |
| 2026-04-26 04:20 | 38.55253 | -103.28578 | 19918 ft | 215 kts | 308° |
| 2026-04-26 04:21 | 38.56304 | -103.29905 | 19916 ft | 215 kts | 308° |
| 2026-04-26 04:21 | 38.57317 | -103.31186 | 19916 ft | 215 kts | 308° |
| 2026-04-26 04:21 | 38.58383 | -103.32539 | 19863 ft | 218 kts | 308° |
| 2026-04-26 04:21 | 38.59471 | -103.33919 | 19707 ft | 223 kts | 308° |
| 2026-04-26 04:22 | 38.60578 | -103.35320 | 19541 ft | 225 kts | 308° |
| 2026-04-26 04:22 | 38.61690 | -103.36729 | 19376 ft | 226 kts | 308° |
| 2026-04-26 04:22 | 38.62810 | -103.38149 | 19220 ft | 227 kts | 308° |
| 2026-04-26 04:22 | 38.63932 | -103.39572 | 19055 ft | 227 kts | 308° |
| 2026-04-26 04:23 | 38.65056 | -103.40998 | 18894 ft | 228 kts | 308° |
| 2026-04-26 04:23 | 38.66168 | -103.42411 | 18733 ft | 228 kts | 309° |
| 2026-04-26 04:23 | 38.67297 | -103.43844 | 18570 ft | 229 kts | 309° |
| 2026-04-26 04:23 | 38.68427 | -103.45280 | 18408 ft | 229 kts | 309° |
| 2026-04-26 04:24 | 38.69560 | -103.46720 | 18244 ft | 230 kts | 309° |
| 2026-04-26 04:24 | 38.70691 | -103.48160 | 18070 ft | 230 kts | 309° |
| 2026-04-26 04:24 | 38.71825 | -103.49602 | 17889 ft | 230 kts | 309° |
| 2026-04-26 04:24 | 38.72956 | -103.51042 | 17707 ft | 229 kts | 309° |
| 2026-04-26 04:25 | 38.74085 | -103.52479 | 17524 ft | 229 kts | 309° |
| 2026-04-26 04:25 | 38.75196 | -103.53897 | 17342 ft | 228 kts | 309° |
| 2026-04-26 04:25 | 38.76322 | -103.55332 | 17160 ft | 228 kts | 309° |
| 2026-04-26 04:25 | 38.77447 | -103.56767 | 16979 ft | 228 kts | 309° |
| 2026-04-26 04:26 | 38.78570 | -103.58201 | 16812 ft | 228 kts | 309° |
| 2026-04-26 04:26 | 38.79695 | -103.59637 | 16633 ft | 228 kts | 309° |
| 2026-04-26 04:26 | 38.80820 | -103.61073 | 16454 ft | 228 kts | 309° |
| 2026-04-26 04:26 | 38.81943 | -103.62510 | 16277 ft | 228 kts | 309° |
| 2026-04-26 04:27 | 38.83069 | -103.63949 | 16101 ft | 228 kts | 309° |
| 2026-04-26 04:27 | 38.84194 | -103.65388 | 15921 ft | 228 kts | 309° |
| 2026-04-26 04:27 | 38.85303 | -103.66807 | 15749 ft | 228 kts | 309° |
| 2026-04-26 04:27 | 38.86311 | -103.68352 | 15590 ft | 224 kts | 300° |
| 2026-04-26 04:28 | 38.87181 | -103.69993 | 15418 ft | 222 kts | 297° |
| 2026-04-26 04:28 | 38.88022 | -103.71655 | 15248 ft | 222 kts | 296° |
| 2026-04-26 04:28 | 38.88858 | -103.73314 | 15075 ft | 222 kts | 297° |
| 2026-04-26 04:28 | 38.89695 | -103.74974 | 14909 ft | 221 kts | 296° |
| 2026-04-26 04:29 | 38.90532 | -103.76633 | 14742 ft | 221 kts | 296° |
| 2026-04-26 04:29 | 38.91368 | -103.78291 | 14576 ft | 221 kts | 297° |
| 2026-04-26 04:29 | 38.92205 | -103.79950 | 14398 ft | 221 kts | 297° |
| 2026-04-26 04:29 | 38.93029 | -103.81584 | 14234 ft | 221 kts | 296° |
| 2026-04-26 04:30 | 38.93863 | -103.83239 | 14079 ft | 221 kts | 297° |
| 2026-04-26 04:30 | 38.94700 | -103.84899 | 13917 ft | 221 kts | 297° |
| 2026-04-26 04:30 | 38.95531 | -103.86551 | 13765 ft | 219 kts | 297° |
| 2026-04-26 04:30 | 38.96351 | -103.88199 | 13588 ft | 218 kts | 297° |
| 2026-04-26 04:31 | 38.97164 | -103.89840 | 13417 ft | 217 kts | 297° |
| 2026-04-26 04:31 | 38.97976 | -103.91480 | 13233 ft | 218 kts | 297° |
| 2026-04-26 04:31 | 38.98789 | -103.93122 | 13045 ft | 218 kts | 297° |
| 2026-04-26 04:31 | 38.99601 | -103.94764 | 12870 ft | 218 kts | 297° |
| 2026-04-26 04:32 | 39.00401 | -103.96382 | 12686 ft | 218 kts | 297° |
| 2026-04-26 04:32 | 39.01215 | -103.98024 | 12524 ft | 218 kts | 297° |
| 2026-04-26 04:32 | 39.02030 | -103.99665 | 12346 ft | 217 kts | 297° |
| 2026-04-26 04:32 | 39.02842 | -104.01297 | 12171 ft | 217 kts | 297° |
| 2026-04-26 04:33 | 39.03657 | -104.02934 | 11995 ft | 217 kts | 297° |
| 2026-04-26 04:33 | 39.04467 | -104.04553 | 11954 ft | 213 kts | 297° |
| 2026-04-26 04:33 | 39.05265 | -104.06144 | 11952 ft | 211 kts | 297° |
| 2026-04-26 04:33 | 39.06059 | -104.07721 | 11948 ft | 210 kts | 297° |
| 2026-04-26 04:34 | 39.06840 | -104.09273 | 11944 ft | 209 kts | 297° |
| 2026-04-26 04:34 | 39.07633 | -104.10848 | 11942 ft | 209 kts | 297° |
| 2026-04-26 04:34 | 39.08425 | -104.12417 | 11938 ft | 209 kts | 297° |
| 2026-04-26 04:34 | 39.09216 | -104.13983 | 11937 ft | 209 kts | 297° |
| 2026-04-26 04:35 | 39.10007 | -104.15549 | 11935 ft | 209 kts | 297° |
| 2026-04-26 04:35 | 39.10800 | -104.17116 | 11938 ft | 209 kts | 297° |
| 2026-04-26 04:35 | 39.11594 | -104.18685 | 11940 ft | 209 kts | 297° |
| 2026-04-26 04:35 | 39.12388 | -104.20248 | 11942 ft | 209 kts | 297° |
| 2026-04-26 04:36 | 39.13182 | -104.21814 | 11944 ft | 208 kts | 297° |
| 2026-04-26 04:36 | 39.13954 | -104.23359 | 11945 ft | 208 kts | 297° |
| 2026-04-26 04:36 | 39.14736 | -104.24925 | 11947 ft | 208 kts | 297° |
| 2026-04-26 04:36 | 39.15521 | -104.26494 | 11960 ft | 208 kts | 297° |
| 2026-04-26 04:37 | 39.16309 | -104.28055 | 11958 ft | 208 kts | 297° |
| 2026-04-26 04:37 | 39.17099 | -104.29618 | 11958 ft | 208 kts | 297° |
| 2026-04-26 04:37 | 39.17887 | -104.31178 | 11959 ft | 208 kts | 297° |
| 2026-04-26 04:37 | 39.18677 | -104.32741 | 11959 ft | 208 kts | 297° |
| 2026-04-26 04:38 | 39.19468 | -104.34306 | 11962 ft | 208 kts | 297° |
| 2026-04-26 04:38 | 39.20249 | -104.35848 | 11961 ft | 208 kts | 297° |
| 2026-04-26 04:38 | 39.21040 | -104.37412 | 11941 ft | 209 kts | 297° |
| 2026-04-26 04:38 | 39.21832 | -104.38977 | 11942 ft | 208 kts | 297° |
| 2026-04-26 04:39 | 39.22623 | -104.40539 | 11956 ft | 208 kts | 297° |
| 2026-04-26 04:39 | 39.23414 | -104.42102 | 11957 ft | 208 kts | 297° |
| 2026-04-26 04:39 | 39.24207 | -104.43666 | 11953 ft | 208 kts | 297° |
| 2026-04-26 04:39 | 39.25002 | -104.45232 | 11954 ft | 209 kts | 297° |
| 2026-04-26 04:40 | 39.25796 | -104.46797 | 11956 ft | 209 kts | 297° |
| 2026-04-26 04:40 | 39.26590 | -104.48365 | 11948 ft | 209 kts | 297° |
| 2026-04-26 04:40 | 39.27372 | -104.49913 | 11949 ft | 209 kts | 297° |
| 2026-04-26 04:40 | 39.28165 | -104.51482 | 11943 ft | 209 kts | 297° |
| 2026-04-26 04:41 | 39.28959 | -104.53049 | 11938 ft | 209 kts | 297° |
| 2026-04-26 04:41 | 39.29753 | -104.54614 | 11950 ft | 208 kts | 297° |
| 2026-04-26 04:41 | 39.30546 | -104.56178 | 11948 ft | 208 kts | 297° |
| 2026-04-26 04:41 | 39.31339 | -104.57743 | 11950 ft | 208 kts | 297° |
| 2026-04-26 04:42 | 39.32134 | -104.59308 | 11953 ft | 209 kts | 297° |
| 2026-04-26 04:42 | 39.32930 | -104.60872 | 11959 ft | 208 kts | 297° |
| 2026-04-26 04:42 | 39.33710 | -104.62407 | 11960 ft | 206 kts | 297° |
| 2026-04-26 04:42 | 39.34488 | -104.63956 | 11958 ft | 205 kts | 296° |
| 2026-04-26 04:43 | 39.35182 | -104.65553 | 11953 ft | 203 kts | 290° |
| 2026-04-26 04:43 | 39.35749 | -104.67212 | 11952 ft | 202 kts | 288° |
| 2026-04-26 04:43 | 39.36295 | -104.68885 | 11968 ft | 202 kts | 287° |
| 2026-04-26 04:43 | 39.36838 | -104.70559 | 11968 ft | 202 kts | 287° |
| 2026-04-26 04:44 | 39.37382 | -104.72235 | 11970 ft | 202 kts | 287° |
| 2026-04-26 04:44 | 39.37926 | -104.73908 | 11988 ft | 202 kts | 287° |
| 2026-04-26 04:44 | 39.38470 | -104.75584 | 11989 ft | 202 kts | 287° |
| 2026-04-26 04:44 | 39.39007 | -104.77235 | 11989 ft | 202 kts | 287° |
| 2026-04-26 04:45 | 39.39550 | -104.78904 | 11989 ft | 202 kts | 287° |
| 2026-04-26 04:45 | 39.40097 | -104.80572 | 11992 ft | 202 kts | 287° |
| 2026-04-26 04:45 | 39.40645 | -104.82240 | 11992 ft | 202 kts | 287° |
| 2026-04-26 04:45 | 39.41194 | -104.83909 | 11994 ft | 201 kts | 287° |
| 2026-04-26 04:46 | 39.41744 | -104.85576 | 12000 ft | 202 kts | 287° |
| 2026-04-26 04:46 | 39.42295 | -104.87252 | 12000 ft | 202 kts | 287° |
| 2026-04-26 04:46 | 39.42844 | -104.88930 | 11944 ft | 205 kts | 287° |
| 2026-04-26 04:46 | 39.43452 | -104.90621 | 11767 ft | 210 kts | 293° |
| 2026-04-26 04:47 | 39.44246 | -104.92234 | 11599 ft | 215 kts | 301° |
| 2026-04-26 04:47 | 39.45146 | -104.93762 | 11431 ft | 219 kts | 306° |
| 2026-04-26 04:47 | 39.46224 | -104.95177 | 11258 ft | 223 kts | 314° |
| 2026-04-26 04:47 | 39.47415 | -104.96474 | 11082 ft | 224 kts | 317° |
| 2026-04-26 04:48 | 39.49823 | -104.99031 | 10744 ft | 225 kts | 317° |
| 2026-04-26 04:48 | 39.51039 | -105.00314 | 10562 ft | 226 kts | 317° |
| 2026-04-26 04:48 | 39.52263 | -105.01597 | 10395 ft | 227 kts | 317° |
| 2026-04-26 04:49 | 39.53489 | -105.02883 | 10228 ft | 227 kts | 317° |
| 2026-04-26 04:49 | 39.54699 | -105.04154 | 10061 ft | 227 kts | 317° |
| 2026-04-26 04:49 | 39.55924 | -105.05439 | 9986 ft | 224 kts | 317° |
| 2026-04-26 04:49 | 39.57130 | -105.06700 | 9984 ft | 222 kts | 317° |
| 2026-04-26 04:50 | 39.58326 | -105.07950 | 9968 ft | 220 kts | 317° |
| 2026-04-26 04:50 | 39.59518 | -105.09196 | 9971 ft | 220 kts | 317° |
| 2026-04-26 04:50 | 39.60711 | -105.10440 | 9971 ft | 220 kts | 317° |
| 2026-04-26 04:50 | 39.61906 | -105.11684 | 9974 ft | 220 kts | 317° |
| 2026-04-26 04:51 | 39.63100 | -105.12928 | 9975 ft | 220 kts | 317° |
| 2026-04-26 04:51 | 39.64293 | -105.14167 | 9975 ft | 220 kts | 317° |
| 2026-04-26 04:51 | 39.65485 | -105.15409 | 9978 ft | 220 kts | 317° |
| 2026-04-26 04:51 | 39.66667 | -105.16633 | 9979 ft | 220 kts | 320° |
| 2026-04-26 04:52 | 39.68008 | -105.17625 | 9939 ft | 226 kts | 332° |
| 2026-04-26 04:52 | 39.69465 | -105.18451 | 9767 ft | 230 kts | 334° |
| 2026-04-26 04:52 | 39.70937 | -105.19273 | 9588 ft | 230 kts | 334° |
| 2026-04-26 04:52 | 39.72402 | -105.20098 | 9409 ft | 229 kts | 334° |
| 2026-04-26 04:53 | 39.73859 | -105.20927 | 9226 ft | 228 kts | 334° |
| 2026-04-26 04:53 | 39.75309 | -105.21759 | 9039 ft | 227 kts | 334° |
| 2026-04-26 04:53 | 39.76756 | -105.22578 | 8861 ft | 227 kts | 338° |
| 2026-04-26 04:53 | 39.78209 | -105.23095 | 8636 ft | 201 kts | 347° |
| 2026-04-26 04:54 | 39.79501 | -105.23474 | 8410 ft | 190 kts | 347° |
| 2026-04-26 04:54 | 39.80857 | -105.23887 | 8286 ft | 207 kts | 347° |
| 2026-04-26 04:54 | 39.82280 | -105.24191 | 8168 ft | 204 kts | 356° |
| 2026-04-26 04:54 | 39.83678 | -105.24295 | 8038 ft | 199 kts | 358° |
| 2026-04-26 04:55 | 39.85053 | -105.24249 | 7912 ft | 197 kts | 7° |
| 2026-04-26 04:55 | 39.86411 | -105.24058 | 7790 ft | 196 kts | 8° |
| 2026-04-26 04:55 | 39.87764 | -105.23859 | 7667 ft | 195 kts | 7° |
| 2026-04-26 04:55 | 39.89111 | -105.23666 | 7540 ft | 194 kts | 7° |
| 2026-04-26 04:56 | 39.90433 | -105.23484 | 7421 ft | 195 kts | 8° |
| 2026-04-26 04:56 | 39.91783 | -105.23304 | 7296 ft | 195 kts | 8° |
| 2026-04-26 04:56 | 39.93130 | -105.23130 | 7177 ft | 195 kts | 8° |
| 2026-04-26 04:56 | 39.94474 | -105.22963 | 7053 ft | 194 kts | 8° |
| 2026-04-26 04:57 | 39.95797 | -105.22808 | 6935 ft | 177 kts | 8° |
| 2026-04-26 04:57 | 39.96905 | -105.22688 | 6793 ft | 149 kts | 8° |
| 2026-04-26 04:57 | 39.97911 | -105.22604 | 6653 ft | 141 kts | 7° |
| 2026-04-26 04:57 | 39.98869 | -105.22535 | 6515 ft | 133 kts | 8° |
| 2026-04-26 04:58 | 39.99796 | -105.22483 | 6381 ft | 136 kts | 8° |
| 2026-04-26 04:58 | 40.00735 | -105.22440 | 6218 ft | 135 kts | 1° |
| 2026-04-26 04:58 | 40.01674 | -105.22545 | 6067 ft | 136 kts | 359° |
| 2026-04-26 04:58 | 40.02604 | -105.22630 | 5996 ft | 129 kts | 8° |
| 2026-04-26 04:59 | 40.03166 | -105.21965 | 5913 ft | 109 kts | 88° |
| 2026-04-26 04:59 | 40.03215 | -105.21040 | 5783 ft | 93 kts | 74° |
| 2026-04-26 04:59 | 40.03695 | -105.20786 | 5628 ft | 90 kts | 326° |
| 2026-04-26 04:59 | 40.03910 | -105.21551 | 5384 ft | 97 kts | 270° |
| 2026-04-26 05:00 | 40.03909 | -105.22353 | 5293 ft | 78 kts | 270° |
| 2026-04-26 05:00 | 40.03911 | -105.22867 | 5286 ft | 35 kts | 272° |
| 2026-04-26 05:00 | 40.03913 | -105.23193 | 5289 ft | 34 kts | 268° |
| 2026-04-26 05:00 | 40.03876 | -105.23336 | 5289 ft | 14 kts | 171° |
| 2026-04-26 05:01 | 40.03788 | -105.23335 | 5288 ft | 9 kts | 160° |
| 2026-04-26 05:01 | 40.03777 | -105.23304 | 5288 ft | 0 kts | 94° |
| 2026-04-26 05:01 | 40.03775 | -105.23251 | 5288 ft | 12 kts | 88° |
| 2026-04-26 05:01 | 40.03776 | -105.23214 | 5282 ft | 7 kts | 90° |
| 2026-04-26 05:02 | 40.03782 | -105.23102 | 5288 ft | 11 kts | 36° |
| 2026-04-26 05:02 | 40.03824 | -105.23056 | 5288 ft | 9 kts | 108° |
| 2026-04-26 05:02 | 40.03789 | -105.23063 | 5288 ft | 4 kts | 182° |
| 2026-04-26 05:02 | 40.03772 | -105.23067 | 5288 ft | 1 kts | 242° |
| 2026-04-26 05:03 | 40.03772 | -105.23074 | 5288 ft | 1 kts | 298° |
| 2026-04-26 05:03 | 40.03774 | -105.23081 | 5288 ft | 0 kts | 268° |